Search for airport 
image banner adimage banner adimage banner ad
image banner ad

OSKL - Kamishly/Domestic

Located in Kamishly, Syrian Arab Republic

ICAO - OSKL, IATA - KAC

Data provided by Airmate  

General information

Coordinates: N37°1'50" E41°12'19"
Elevation is 1430 feet MSL.
 
View others Airports in Al-Hasakah Governorate

Operational data

Special qualification required
Current time UTC:
Current local time:
Weather
METAR: OSKL 171800Z 34008KT CAVOK 20/02 Q1017
View NOTAMs / SUP AIP / TFR affecting this airport [VIEW]
Communications frequencies: [VIEW]

Runways:

RWY identifierQFULength (ft)Width (ft)SurfaceLDA (ft)
0330°11811197ASP
21228°11811197

Airport contact information

Address: Kamishly Syrian Arab Republic

Satellite view of OSKL